Terminal Aerodrome Forecast
Issued by NWS

Home | Current Version | Previous Version | Text Only | Print | Product List | Glossary Off
Versions: 1 2 3 4 5 6 7 8 9 10 11 12 13 14 15 16 17 18 19 20 21

000
FTUS43 KMPX 110846 AAA
TAFAXN
TAF AMD
KAXN 110846Z 1109/1206 23007KT P6SM VCSH SCT035 OVC050
      TEMPO 1109/1112 5SM -FZRAPLSN
     FM111500 33020G31KT P6SM OVC015
     FM112300 33018G26KT P6SM SCT020
     FM120400 33011KT P6SM SCT090=

USA.gov is the U.S. government's official web portal to all federal, state and local government web resources and services.